Briefing drone pour Bourg-achard

Rechercher une autre localisation

Conditions de vol :


Nous sommes le : Jeudi 08 juin 2023
Il est 06:07 UTC (08:07 LT)

Lever de soleil : 03:26 UTC (05:26 LT)
Coucher de soleil : 20:25 UTC (22:25 LT)

Météo

L'essentiel des conditions de vol

VIGILANCE MÉTÉO FRANCE - Eure (27)
Pas de vigilances particulieres
CARTE TEMSI
CARTES DES FRONTS
METAR de LFOP
LFOP 080600Z AUTO 05009KT 9000 NSC 15/12 Q1016 NOSIG

Date d'émission: 08/06/2023
Heure d'émission: 06:00 UTC
Vent: 050° pour 9 KT (17 km/h)
Visibilité horizontale: 9000 m
Plafond : Pas de nuages significatifs (NSC)
Température: 15 °C
Point de rosée: 12 °C
Humidité: 82%
Pression (QNH): 1016 hPa
Conditions: Pas de changement dans les 2 heures (NOSIG)
TAF de LFOP
LFOP 230847Z 2309/2406 CNL

Conditions prévues :

Heure d'émission : Bulletin éffectué le 23 à 09:00 UTC
Prévision : Valide du 23 a 09:00 UTC au 24 a 06:00 UTC
Nuages : à 0ft (0 m)
WEBCAM POUR BOURG-ACHARD

Réglementation

Voler en sécurité

CARTES AERONAUTIQUE 1/500.000
CARTE AZBA (Reseau basse altitude)
CARTES VAC (LFOP)
SUP AIP




Chargement des AIP...
NOTAM (BOURG-ACHARD + Terrain à proximité / FIR )




Chargement des NOTAMS...
CONTACT PREFECTURE 27
Eure (27) : [email protected]


Avertissement : Les données mises à disposition sont indicatives. Oxygène Drone ne pourra être tenu responsable de dégâts causés aux biens et aux personnes.